Princeton, Florida
Current Conditions -  °F | °C
As of 9:58 AM on Monday 22 Dec 2014 (Local Time) from KHST Reporting Station
Few Clouds Few Clouds  
Wind Chill: 78°   Ceiling: Unl
Heat Index: 81°   Visibility: 10mi
Dew Point: 68°   Wind: 10mph
Humidity: 71%   Direction: 160°SSE
Pressure: 30.05"   Gusts: NA
Location:  25.5445°N, 80.4236°W
Report Text: KHST 221458Z AUTO 16009KT 10SM FEW022 26/20 A3005 RMK AO2 SLP179 T02580202 52010 $
Loading
Personal Weather Stations






























Interactive Weather Map New forecast layout! Learn more

10-Day Weather Forecast

Advertisements
Track Severe Weather on mobile